createdAt,value
2024-02-01T00:02:13.042Z,102249.00
2024-02-01T00:04:39.563Z,102260.75
2024-02-01T00:07:06.154Z,102262.97
2024-02-01T00:09:32.663Z,102258.56
2024-02-01T00:11:59.192Z,102199.00
2024-02-01T00:14:25.744Z,102189.53
2024-02-01T00:16:52.199Z,102206.22
2024-02-01T00:19:18.770Z,102247.22
2024-02-01T00:21:45.221Z,102239.44
2024-02-01T00:24:11.913Z,102243.91
2024-02-01T00:26:38.465Z,102235.41
2024-02-01T00:29:06.260Z,102256.16
2024-02-01T00:31:32.746Z,102249.91
2024-02-01T00:34:01.323Z,102244.41
2024-02-01T00:36:27.859Z,102254.22
2024-02-01T00:38:54.386Z,102248.69
2024-02-01T00:41:21.961Z,102254.91
2024-02-01T00:43:48.744Z,102263.97
2024-02-01T00:46:15.859Z,102268.81
2024-02-01T00:48:42.962Z,102259.94
2024-02-01T00:51:09.792Z,102257.06
2024-02-01T00:53:36.419Z,102262.22
2024-02-01T00:56:03.294Z,102248.50
2024-02-01T00:58:29.721Z,102261.56
2024-02-01T01:00:56.310Z,102262.72
2024-02-01T01:03:22.997Z,102264.88
2024-02-01T01:05:49.542Z,102271.94
2024-02-01T01:08:17.840Z,102272.31
2024-02-01T01:10:44.534Z,102265.66
2024-02-01T01:13:11.312Z,102267.56
2024-02-01T01:15:37.812Z,102267.13
2024-02-01T01:18:04.766Z,102269.53
2024-02-01T01:20:31.301Z,102277.34
2024-02-01T01:22:57.833Z,102287.06
2024-02-01T01:25:24.327Z,102290.22
2024-02-01T01:27:50.876Z,102293.47
2024-02-01T01:30:17.500Z,102266.28
2024-02-01T01:32:44.118Z,102283.78
2024-02-01T01:35:10.700Z,102281.09
2024-02-01T01:37:38.100Z,102275.72
2024-02-01T01:40:05.487Z,102280.28
2024-02-01T01:42:31.978Z,102280.47
2024-02-01T01:44:58.595Z,102285.63
2024-02-01T01:47:27.024Z,102286.06
2024-02-01T01:49:53.675Z,102286.06
2024-02-01T01:52:20.680Z,102300.34
2024-02-01T01:54:47.636Z,102294.69
2024-02-01T01:57:14.829Z,102297.13
2024-02-01T01:59:41.588Z,102300.97
2024-02-01T02:02:09.177Z,102303.88
2024-02-01T02:04:36.642Z,102316.16
2024-02-01T02:07:03.977Z,102317.31
2024-02-01T02:09:30.966Z,102328.69
2024-02-01T02:11:57.459Z,102327.69
2024-02-01T02:14:24.083Z,102335.53
2024-02-01T02:16:50.594Z,102343.47
2024-02-01T02:19:17.423Z,102345.94
2024-02-01T02:21:49.406Z,102347.72
2024-02-01T02:24:19.717Z,102352.25
2024-02-01T02:26:47.523Z,102360.63
2024-02-01T02:29:16.937Z,102358.78
2024-02-01T02:31:47.754Z,102372.09
2024-02-01T02:34:14.874Z,102379.47
2024-02-01T02:36:41.813Z,102382.03
2024-02-01T02:39:13.345Z,102392.63
2024-02-01T02:41:40.295Z,102390.38
2024-02-01T02:44:10.317Z,102396.97
2024-02-01T02:46:36.830Z,102395.13
2024-02-01T02:49:03.542Z,102399.16
2024-02-01T02:51:30.176Z,102400.78
2024-02-01T02:53:56.740Z,102404.88
2024-02-01T02:56:25.161Z,102401.91
2024-02-01T02:58:51.762Z,102402.69
2024-02-01T03:01:18.298Z,102409.03
2024-02-01T03:03:44.895Z,102401.97
2024-02-01T03:06:12.158Z,102416.25
2024-02-01T03:08:42.881Z,102407.81
2024-02-01T03:11:13.375Z,102398.81
2024-02-01T03:13:43.452Z,102402.97
2024-02-01T03:16:17.869Z,102414.53
2024-02-01T03:18:48.588Z,102419.69
2024-02-01T03:21:16.521Z,102423.16
2024-02-01T03:23:48.815Z,102401.03
2024-02-01T03:26:15.519Z,102422.66
2024-02-01T03:28:43.474Z,102428.03
2024-02-01T03:31:10.654Z,102430.00
2024-02-01T03:33:45.735Z,102438.28
2024-02-01T03:36:12.910Z,102448.25
2024-02-01T03:38:43.698Z,102457.03
2024-02-01T03:41:12.449Z,102451.28
2024-02-01T03:43:39.173Z,102450.81
2024-02-01T03:46:05.630Z,102446.25
2024-02-01T03:48:34.036Z,102453.44
2024-02-01T03:51:01.730Z,102455.50
2024-02-01T03:53:28.929Z,102460.13
2024-02-01T03:55:55.463Z,102462.31
2024-02-01T03:58:22.652Z,102458.84
2024-02-01T04:00:51.319Z,102473.00
2024-02-01T04:03:18.194Z,102457.13
2024-02-01T04:05:45.050Z,102492.72
2024-02-01T04:08:13.839Z,102505.56
2024-02-01T04:10:40.599Z,102507.22
2024-02-01T04:13:08.899Z,102509.63
2024-02-01T04:15:36.707Z,102527.50
2024-02-01T04:18:05.593Z,102526.66
2024-02-01T04:20:32.791Z,102532.84
2024-02-01T04:22:59.536Z,102531.41
2024-02-01T04:25:26.655Z,102534.22
2024-02-01T04:27:54.896Z,102512.56
2024-02-01T04:30:22.164Z,102501.66
2024-02-01T04:32:49.181Z,102551.25
2024-02-01T04:35:17.385Z,102555.22
2024-02-01T04:37:45.007Z,102556.78
2024-02-01T04:40:13.080Z,102567.22
2024-02-01T04:42:41.214Z,102568.88
2024-02-01T04:45:09.798Z,102577.75
2024-02-01T04:47:37.298Z,102579.38
2024-02-01T04:50:05.631Z,102587.41
2024-02-01T04:52:32.987Z,102594.59
2024-02-01T04:54:59.553Z,102601.22
2024-02-01T04:57:26.121Z,102594.69
2024-02-01T04:59:52.752Z,102598.50
2024-02-01T05:02:21.938Z,102597.25
2024-02-01T05:04:48.879Z,102601.22
2024-02-01T05:07:15.645Z,102616.00
2024-02-01T05:09:43.655Z,102615.44
2024-02-01T05:12:10.379Z,102622.19
2024-02-01T05:14:37.472Z,102616.75
2024-02-01T05:17:04.711Z,102616.66
2024-02-01T05:19:31.305Z,102624.09
2024-02-01T05:21:57.795Z,102597.53
2024-02-01T05:24:29.180Z,102613.66
2024-02-01T05:26:56.172Z,102620.19
2024-02-01T05:29:24.766Z,102631.72
2024-02-01T05:31:53.001Z,102632.25
2024-02-01T05:34:21.053Z,102608.31
2024-02-01T05:36:49.024Z,102641.13
2024-02-01T05:39:25.887Z,102637.59
2024-02-01T05:41:56.156Z,102638.78
2024-02-01T05:44:23.622Z,102636.41
2024-02-01T05:46:54.469Z,102634.50
2024-02-01T05:49:26.728Z,102632.78
2024-02-01T05:51:53.993Z,102638.13
2024-02-01T05:54:21.507Z,102642.38
2024-02-01T05:56:48.956Z,102639.28
2024-02-01T05:59:17.670Z,102651.66
2024-02-01T06:01:45.408Z,102637.66
2024-02-01T06:04:13.324Z,102661.16
2024-02-01T06:06:48.168Z,102659.00
2024-02-01T06:09:17.026Z,102668.00
2024-02-01T06:11:51.573Z,102676.97
2024-02-01T06:14:18.470Z,102676.75
2024-02-01T06:16:45.738Z,102680.31
2024-02-01T06:19:12.698Z,102673.25
2024-02-01T06:21:39.536Z,102704.06
2024-02-01T06:24:06.617Z,102718.63
2024-02-01T06:26:33.142Z,102720.91
2024-02-01T06:29:08.507Z,102729.63
2024-02-01T06:31:39.422Z,102697.81
2024-02-01T06:34:10.179Z,102736.50
2024-02-01T06:36:39.811Z,102742.06
2024-02-01T06:39:18.611Z,102750.47
2024-02-01T06:41:49.655Z,102719.31
2024-02-01T06:44:23.461Z,102748.56
2024-02-01T06:47:06.556Z,102753.25
2024-02-01T06:49:36.214Z,102712.31
2024-02-01T06:52:15.481Z,102752.97
2024-02-01T06:55:00.422Z,102707.06
2024-02-01T06:57:35.956Z,102751.38
2024-02-01T07:00:02.763Z,102755.22
2024-02-01T07:02:49.441Z,102758.22
2024-02-01T07:05:48.098Z,102751.63
2024-02-01T07:08:27.888Z,102759.63
2024-02-01T07:11:05.062Z,102763.44
2024-02-01T07:13:49.984Z,102753.75
2024-02-01T07:16:25.886Z,102758.44
2024-02-01T07:19:19.072Z,102729.94
2024-02-01T07:22:04.407Z,102720.59
2024-02-01T07:24:50.117Z,102758.88
2024-02-01T07:27:35.654Z,102785.06
2024-02-01T07:30:22.116Z,102785.75
2024-02-01T07:33:07.387Z,102794.72
2024-02-01T07:35:52.798Z,102765.09
2024-02-01T07:38:37.688Z,102810.06
2024-02-01T07:41:24.148Z,102798.88
2024-02-01T07:44:09.196Z,102785.50
2024-02-01T07:46:54.518Z,102793.13
2024-02-01T07:49:39.661Z,102803.97
2024-02-01T07:52:24.750Z,102803.56
2024-02-01T07:55:09.875Z,102797.38
2024-02-01T07:57:58.907Z,102803.34
2024-02-01T08:00:30.114Z,102800.97
2024-02-01T08:03:23.307Z,102806.56
2024-02-01T08:06:12.528Z,102821.81
2024-02-01T08:08:39.718Z,102812.94
2024-02-01T08:11:06.467Z,102822.00
2024-02-01T08:13:33.204Z,102827.81
2024-02-01T08:16:03.920Z,102828.50
2024-02-01T08:18:36.887Z,102828.28
2024-02-01T08:21:06.054Z,102839.44
2024-02-01T08:23:33.176Z,102803.94
2024-02-01T08:26:03.972Z,102844.25
2024-02-01T08:28:33.670Z,102849.13
2024-02-01T08:31:14.076Z,102831.84
2024-02-01T08:33:44.118Z,102860.06
2024-02-01T08:36:18.841Z,102871.25
2024-02-01T08:38:45.427Z,102871.25
2024-02-01T08:41:12.744Z,102878.31
2024-02-01T08:43:41.653Z,102881.31
2024-02-01T08:46:08.461Z,102873.50
2024-02-01T08:48:35.067Z,102877.69
2024-02-01T08:51:01.784Z,102874.50
2024-02-01T08:53:28.492Z,102887.28
2024-02-01T08:55:55.052Z,102891.44
2024-02-01T08:58:22.292Z,102894.22
2024-02-01T09:00:50.396Z,102876.97
2024-02-01T09:03:18.334Z,102902.06
2024-02-01T09:05:50.725Z,102893.84
2024-02-01T09:08:25.965Z,102908.50
2024-02-01T09:10:59.631Z,102903.13
2024-02-01T09:13:29.429Z,102904.16
2024-02-01T09:15:59.612Z,102920.91
2024-02-01T09:18:26.846Z,102913.94
2024-02-01T09:20:54.215Z,102892.66
2024-02-01T09:23:23.343Z,102856.03
2024-02-01T09:25:50.164Z,102898.84
2024-02-01T09:28:16.730Z,102871.34
2024-02-01T09:30:48.738Z,102878.72
2024-02-01T09:33:18.372Z,102888.22
2024-02-01T09:35:46.543Z,102919.13
2024-02-01T09:38:13.872Z,102911.81
2024-02-01T09:40:42.726Z,102914.34
2024-02-01T09:43:18.438Z,102929.34
2024-02-01T09:45:48.635Z,102934.41
2024-02-01T09:48:19.888Z,102935.63
2024-02-01T09:50:52.384Z,102946.16
2024-02-01T09:53:24.680Z,102900.97
2024-02-01T09:55:59.524Z,102944.75
2024-02-01T09:58:29.970Z,102939.03
2024-02-01T10:00:56.705Z,102950.06
2024-02-01T10:03:29.363Z,102954.78
2024-02-01T10:05:57.966Z,102922.25
2024-02-01T10:08:27.745Z,102949.56
2024-02-01T10:10:54.506Z,102964.66
2024-02-01T10:13:32.076Z,102979.59
2024-02-01T10:16:01.124Z,102972.78
2024-02-01T10:18:28.676Z,102987.94
2024-02-01T10:20:59.336Z,102963.63
2024-02-01T10:23:27.068Z,102984.38
2024-02-01T10:25:55.345Z,102979.94
2024-02-01T10:28:35.804Z,102986.69
2024-02-01T10:31:04.831Z,102980.16
2024-02-01T10:33:32.608Z,102983.00
2024-02-01T10:36:10.558Z,102985.41
2024-02-01T10:38:43.756Z,102982.34
2024-02-01T10:41:14.944Z,102991.78
2024-02-01T10:43:46.520Z,102965.94
2024-02-01T10:46:30.047Z,102993.50
2024-02-01T10:49:23.253Z,102997.78
2024-02-01T10:51:52.077Z,103009.72
2024-02-01T10:54:19.751Z,102994.47
2024-02-01T10:56:47.598Z,103004.03
2024-02-01T10:59:17.161Z,103016.09
2024-02-01T11:01:45.025Z,103015.97
2024-02-01T11:04:12.613Z,102999.16
2024-02-01T11:06:46.986Z,103004.88
2024-02-01T11:09:20.041Z,103009.50
2024-02-01T11:11:51.378Z,102995.72
2024-02-01T11:14:22.933Z,103003.03
2024-02-01T11:16:53.146Z,103017.78
2024-02-01T11:19:30.668Z,103023.16
2024-02-01T11:21:59.949Z,103024.28
2024-02-01T11:24:38.385Z,103019.53
2024-02-01T11:27:21.425Z,103027.88
2024-02-01T11:29:53.763Z,103026.16
2024-02-01T11:32:22.990Z,103030.28
2024-02-01T11:35:00.650Z,103039.13
2024-02-01T11:37:29.255Z,103005.09
2024-02-01T11:39:56.882Z,102988.72
2024-02-01T11:42:31.542Z,103046.16
2024-02-01T11:45:01.162Z,103031.13
2024-02-01T11:47:29.115Z,103032.22
2024-02-01T11:49:55.925Z,103040.69
2024-02-01T11:52:30.247Z,103041.75
2024-02-01T11:54:56.868Z,103028.50
2024-02-01T11:57:26.356Z,103039.56
2024-02-01T11:59:57.096Z,103056.38
2024-02-01T12:02:31.524Z,103052.56
2024-02-01T12:05:00.421Z,103045.56
2024-02-01T12:07:27.033Z,103035.50
2024-02-01T12:09:53.620Z,103050.06
2024-02-01T12:12:24.584Z,103057.50
2024-02-01T12:14:53.741Z,103053.75
2024-02-01T12:17:25.264Z,103053.72
2024-02-01T12:19:55.502Z,103051.13
2024-02-01T12:22:28.510Z,103047.38
2024-02-01T12:24:55.995Z,103062.94
2024-02-01T12:27:22.459Z,103069.88
2024-02-01T12:29:50.335Z,103079.09
2024-02-01T12:32:17.078Z,103061.50
2024-02-01T12:34:43.815Z,103058.47
2024-02-01T12:37:12.403Z,103064.06
2024-02-01T12:39:41.384Z,103069.69
2024-02-01T12:42:08.789Z,103060.28
2024-02-01T12:44:35.528Z,103058.41
2024-02-01T12:47:02.135Z,103066.38
2024-02-01T12:49:29.438Z,103055.31
2024-02-01T12:51:56.873Z,103054.13
2024-02-01T12:54:23.382Z,103063.59
2024-02-01T12:56:49.882Z,103066.50
2024-02-01T12:59:16.413Z,103062.56
2024-02-01T13:01:43.163Z,103064.94
2024-02-01T13:04:09.877Z,103058.00
2024-02-01T13:06:36.656Z,103065.84
2024-02-01T13:09:03.881Z,103068.41
2024-02-01T13:11:31.068Z,103061.59
2024-02-01T13:13:57.772Z,103058.78
2024-02-01T13:16:28.512Z,103059.28
2024-02-01T13:18:56.387Z,103055.84
2024-02-01T13:21:24.354Z,103065.84
2024-02-01T13:23:52.193Z,103058.34
2024-02-01T13:26:18.805Z,103061.09
2024-02-01T13:28:45.360Z,103056.44
2024-02-01T13:31:11.866Z,103062.09
2024-02-01T13:33:39.064Z,103065.03
2024-02-01T13:36:10.747Z,103032.41
2024-02-01T13:38:37.512Z,103064.50
2024-02-01T13:41:04.708Z,103052.59
2024-02-01T13:43:31.221Z,103060.19
2024-02-01T13:45:57.734Z,103067.81
2024-02-01T13:48:26.307Z,103070.97
2024-02-01T13:50:55.403Z,103083.50
2024-02-01T13:53:22.057Z,103075.13
2024-02-01T13:55:49.158Z,103083.69
2024-02-01T13:58:15.787Z,103067.59
2024-02-01T14:00:51.225Z,103062.03
2024-02-01T14:03:26.590Z,103065.88
2024-02-01T14:05:53.588Z,103058.75
2024-02-01T14:08:21.104Z,103077.50
2024-02-01T14:10:47.857Z,103066.72
2024-02-01T14:13:14.629Z,103077.66
2024-02-01T14:15:41.513Z,103077.06
2024-02-01T14:18:08.169Z,103074.88
2024-02-01T14:20:34.889Z,103090.78
2024-02-01T14:23:01.453Z,103078.41
2024-02-01T14:25:27.958Z,103085.13
2024-02-01T14:27:54.722Z,103091.03
2024-02-01T14:30:21.564Z,103098.22
2024-02-01T14:32:48.261Z,103097.22
2024-02-01T14:35:17.721Z,103096.00
2024-02-01T14:37:45.229Z,103087.78
2024-02-01T14:40:12.820Z,103096.22
2024-02-01T14:42:40.491Z,103065.28
2024-02-01T14:45:07.851Z,103050.22
2024-02-01T14:47:34.814Z,103076.06
2024-02-01T14:50:01.332Z,103099.66
2024-02-01T14:52:27.874Z,103077.69
2024-02-01T14:54:56.515Z,103081.59
2024-02-01T14:57:23.470Z,103052.97
2024-02-01T14:59:50.608Z,103101.91
2024-02-01T15:02:17.301Z,103062.66
2024-02-01T15:04:43.819Z,103098.00
2024-02-01T15:07:10.380Z,103103.88
2024-02-01T15:09:38.111Z,103098.22
2024-02-01T15:12:06.119Z,103093.97
2024-02-01T15:14:35.797Z,103106.97
2024-02-01T15:17:05.645Z,103104.19
2024-02-01T15:19:33.412Z,103078.81
2024-02-01T15:22:01.199Z,103109.06
2024-02-01T15:24:27.948Z,103119.88
2024-02-01T15:26:55.075Z,103121.56
2024-02-01T15:29:21.607Z,103125.81
2024-02-01T15:31:48.199Z,103129.38
2024-02-01T15:34:16.679Z,103122.06
2024-02-01T15:36:43.353Z,103130.25
2024-02-01T15:39:11.024Z,103132.94
2024-02-01T15:41:40.372Z,103137.75
2024-02-01T15:44:07.328Z,103143.91
2024-02-01T15:46:38.786Z,103105.03
2024-02-01T15:49:07.080Z,103142.09
2024-02-01T15:51:33.695Z,103142.53
2024-02-01T15:54:00.229Z,103152.38
2024-02-01T15:56:26.738Z,103162.66
2024-02-01T15:58:53.280Z,103169.06
2024-02-01T16:01:20.194Z,103169.41
2024-02-01T16:03:46.862Z,103170.09
2024-02-01T16:06:18.329Z,103175.16
2024-02-01T16:08:52.752Z,103183.72
2024-02-01T16:11:21.475Z,103177.19
2024-02-01T16:13:58.183Z,103177.63
2024-02-01T16:16:38.579Z,103174.16
2024-02-01T16:19:20.796Z,103177.81
2024-02-01T16:21:47.959Z,103184.06
2024-02-01T16:24:35.199Z,103184.91
2024-02-01T16:27:08.844Z,103191.97
2024-02-01T16:29:55.482Z,103190.25
2024-02-01T16:32:35.502Z,103174.16
2024-02-01T16:35:05.892Z,103156.78
2024-02-01T16:37:34.872Z,103160.19
2024-02-01T16:40:01.901Z,103191.22
2024-02-01T16:42:39.834Z,103192.47
2024-02-01T16:45:15.161Z,103189.78
2024-02-01T16:47:47.137Z,103184.66
2024-02-01T16:50:48.544Z,103198.25
2024-02-01T16:53:30.132Z,103182.22
2024-02-01T16:55:58.109Z,103177.88
2024-02-01T16:58:49.781Z,103173.56
2024-02-01T17:01:39.063Z,103169.75
2024-02-01T17:04:34.090Z,103183.41
2024-02-01T17:07:01.371Z,103173.44
2024-02-01T17:09:28.738Z,103155.19
2024-02-01T17:11:57.046Z,103179.22
2024-02-01T17:14:23.629Z,103191.84
2024-02-01T17:17:14.632Z,103191.44
2024-02-01T17:19:42.911Z,103183.41
2024-02-01T17:22:27.416Z,103181.22
2024-02-01T17:24:56.734Z,103189.25
2024-02-01T17:27:28.967Z,103194.41
2024-02-01T17:29:58.461Z,103205.41
2024-02-01T17:32:28.131Z,103196.19
2024-02-01T17:34:54.914Z,103201.34
2024-02-01T17:37:39.169Z,103206.69
2024-02-01T17:40:08.744Z,103203.19
2024-02-01T17:42:36.782Z,103202.63
2024-02-01T17:45:15.896Z,103208.00
2024-02-01T17:47:43.149Z,103168.97
2024-02-01T17:50:36.577Z,103218.09
2024-02-01T17:53:08.750Z,103205.88
2024-02-01T17:55:38.254Z,103218.72
2024-02-01T17:58:31.654Z,103223.19
2024-02-01T18:00:59.223Z,103213.53
2024-02-01T18:03:25.815Z,103215.72
2024-02-01T18:05:53.010Z,103204.56
2024-02-01T18:08:19.675Z,103208.09
2024-02-01T18:10:50.949Z,103211.25
2024-02-01T18:13:17.619Z,103143.38
2024-02-01T18:15:44.078Z,103201.59
2024-02-01T18:18:19.350Z,103204.47
2024-02-01T18:20:46.034Z,103188.13
2024-02-01T18:23:19.161Z,103196.44
2024-02-01T18:25:45.667Z,103185.91
2024-02-01T18:28:16.278Z,103187.38
2024-02-01T18:30:44.470Z,103182.69
2024-02-01T18:33:12.414Z,103191.78
2024-02-01T18:35:44.196Z,103186.53
2024-02-01T18:38:20.101Z,103191.47
2024-02-01T18:40:51.851Z,103187.25
2024-02-01T18:43:23.386Z,103190.44
2024-02-01T18:45:49.904Z,103195.25
2024-02-01T18:48:36.033Z,103197.69
2024-02-01T18:51:04.773Z,103186.69
2024-02-01T18:53:41.783Z,103191.31
2024-02-01T18:56:34.565Z,103194.81
2024-02-01T18:59:02.514Z,103202.97
2024-02-01T19:01:39.890Z,103198.41
2024-02-01T19:04:16.784Z,103195.47
2024-02-01T19:06:46.338Z,103203.59
2024-02-01T19:09:18.645Z,103205.78
2024-02-01T19:11:47.249Z,103196.72
2024-02-01T19:14:51.110Z,103198.63
2024-02-01T19:17:35.808Z,103204.50
2024-02-01T19:20:11.513Z,103206.50
2024-02-01T19:22:42.562Z,103203.25
2024-02-01T19:25:16.969Z,103201.69
2024-02-01T19:27:44.887Z,103176.41
2024-02-01T19:30:42.295Z,103197.44
2024-02-01T19:33:21.599Z,103197.22
2024-02-01T19:35:49.944Z,103176.50
2024-02-01T19:38:19.631Z,103199.84
2024-02-01T19:40:50.505Z,103194.44
2024-02-01T19:43:21.051Z,103205.28
2024-02-01T19:45:48.284Z,103197.28
2024-02-01T19:48:15.954Z,103171.06
2024-02-01T19:50:43.239Z,103183.56
2024-02-01T19:53:09.945Z,103186.75
2024-02-01T19:55:36.535Z,103171.47
2024-02-01T19:58:03.722Z,103188.50
2024-02-01T20:00:30.328Z,103188.63
2024-02-01T20:02:57.477Z,103189.13
2024-02-01T20:05:24.177Z,103189.13
2024-02-01T20:07:50.681Z,103194.09
2024-02-01T20:10:17.338Z,103184.09
2024-02-01T20:12:46.103Z,103192.97
2024-02-01T20:15:12.715Z,103165.50
2024-02-01T20:17:39.376Z,103185.53
2024-02-01T20:20:11.548Z,103193.59
2024-02-01T20:22:41.347Z,103196.44
2024-02-01T20:25:28.900Z,103206.03
2024-02-01T20:28:00.253Z,103207.53
2024-02-01T20:30:29.129Z,103209.81
2024-02-01T20:33:01.539Z,103200.06
2024-02-01T20:35:36.562Z,103212.13
2024-02-01T20:38:12.000Z,103201.69
2024-02-01T20:40:40.486Z,103205.25
2024-02-01T20:43:11.356Z,103205.25
2024-02-01T20:45:38.826Z,103186.03
2024-02-01T20:48:17.959Z,103192.25
2024-02-01T20:50:48.330Z,103186.22
2024-02-01T20:53:14.793Z,103180.97
2024-02-01T20:55:47.063Z,103172.00
2024-02-01T20:58:45.939Z,103190.03
2024-02-01T21:01:18.057Z,103175.06
2024-02-01T21:03:45.260Z,103152.72
2024-02-01T21:06:12.554Z,103165.81
2024-02-01T21:08:39.838Z,103153.47
2024-02-01T21:11:45.123Z,103159.59
2024-02-01T21:14:41.844Z,103159.41
2024-02-01T21:17:14.302Z,103158.84
2024-02-01T21:19:41.045Z,103148.72
2024-02-01T21:22:08.622Z,103149.09
2024-02-01T21:24:35.369Z,103144.97
2024-02-01T21:27:02.163Z,103139.53
2024-02-01T21:29:28.710Z,103152.25
2024-02-01T21:32:03.868Z,103145.47
2024-02-01T21:34:43.566Z,103102.69
2024-02-01T21:37:13.878Z,103150.63
2024-02-01T21:39:49.956Z,103167.59
2024-02-01T21:42:28.746Z,103156.91
2024-02-01T21:44:59.602Z,103153.97
2024-02-01T21:47:26.431Z,103091.63
2024-02-01T21:49:52.994Z,103138.41
2024-02-01T21:52:19.858Z,103131.81
2024-02-01T21:54:46.415Z,103135.06
2024-02-01T21:57:13.009Z,103139.94
2024-02-01T21:59:39.522Z,103134.19
2024-02-01T22:02:06.828Z,103136.56
2024-02-01T22:04:37.225Z,103119.31
2024-02-01T22:07:04.337Z,103129.41
2024-02-01T22:09:32.333Z,103126.72
2024-02-01T22:11:59.086Z,103127.38
2024-02-01T22:14:25.728Z,103126.91
2024-02-01T22:16:52.506Z,103127.78
2024-02-01T22:19:19.067Z,103124.75
2024-02-01T22:21:46.414Z,103128.53
2024-02-01T22:24:13.016Z,103116.63
2024-02-01T22:26:39.500Z,103117.75
2024-02-01T22:29:05.967Z,103119.00
2024-02-01T22:31:32.574Z,103121.59
2024-02-01T22:33:59.348Z,103125.47
2024-02-01T22:36:25.973Z,103095.97
2024-02-01T22:38:52.543Z,103118.69
2024-02-01T22:41:19.648Z,103112.72
2024-02-01T22:43:46.199Z,103116.41
2024-02-01T22:46:12.671Z,103107.75
2024-02-01T22:48:40.549Z,103101.13
2024-02-01T22:51:07.294Z,103097.81
2024-02-01T22:53:33.862Z,103096.69
2024-02-01T22:56:00.359Z,103098.22
2024-02-01T22:58:26.843Z,103101.38
2024-02-01T23:00:53.402Z,103085.03
2024-02-01T23:03:19.975Z,103086.91
2024-02-01T23:05:46.625Z,103084.63
2024-02-01T23:08:13.136Z,103081.41
2024-02-01T23:10:39.761Z,103086.03
2024-02-01T23:13:07.295Z,103074.47
2024-02-01T23:15:33.799Z,103069.13
2024-02-01T23:18:00.488Z,103070.28
2024-02-01T23:20:28.125Z,103071.09
2024-02-01T23:22:54.883Z,103076.19
2024-02-01T23:25:21.797Z,103064.47
2024-02-01T23:27:48.361Z,103061.72
2024-02-01T23:30:15.884Z,103054.75
2024-02-01T23:32:42.552Z,103046.88
2024-02-01T23:35:09.139Z,103042.78
2024-02-01T23:37:35.709Z,103046.41
2024-02-01T23:40:03.121Z,103039.84
2024-02-01T23:42:32.126Z,103042.06
2024-02-01T23:44:58.993Z,103032.38
2024-02-01T23:47:26.080Z,103011.88
2024-02-01T23:49:52.770Z,103011.19
2024-02-01T23:52:19.320Z,103018.50
2024-02-01T23:54:45.789Z,103025.94
2024-02-01T23:57:12.351Z,103004.25
2024-02-01T23:59:38.855Z,103005.06
